Time;durP1;ratioP1;P1;durP2;ratioP2;P2;SDS_P1;SDS_P2;PMS_P1;PMS_P2;Temp;Humidity;BMP_temperature;BMP_pressure;BME280_temperature;BME280_humidity;BME280_pressure;Samples;Min_cycle;Max_cycle;Signal;HPM_P1;HPM_P2
2023/05/26 00:01:08;;;;;;;3.83;3.30;;;;;;;;;;5010869;28;20184;-50
2023/05/26 00:03:34;;;;;;;4.88;3.78;;;;;;;;;;5009576;28;20482;-50
2023/05/26 00:06:00;;;;;;;6.05;3.95;;;;;;;;;;5011522;28;20177;-50
2023/05/26 00:08:26;;;;;;;5.00;3.63;;;;;;;;;;5007377;28;20208;-50
2023/05/26 00:10:52;;;;;;;4.85;3.80;;;;;;;;;;5013623;28;20184;-50
2023/05/26 00:13:18;;;;;;;5.90;3.97;;;;;;;;;;5012619;28;20457;-50
2023/05/26 00:15:44;;;;;;;6.07;3.85;;;;;;;;;;5013121;28;20180;-49
2023/05/26 00:18:10;;;;;;;4.13;3.70;;;;;;;;;;5012633;28;20176;-49
2023/05/26 00:20:36;;;;;;;6.00;4.22;;;;;;;;;;5014808;28;20200;-50
2023/05/26 00:23:02;;;;;;;7.75;4.30;;;;;;;;;;5013629;28;20552;-48
2023/05/26 00:25:28;;;;;;;6.25;3.92;;;;;;;;;;5014215;28;20256;-49
2023/05/26 00:27:54;;;;;;;8.95;3.95;;;;;;;;;;5011324;28;20469;-49
2023/05/26 00:30:20;;;;;;;6.05;3.35;;;;;;;;;;5010436;28;20176;-49
2023/05/26 00:32:46;;;;;;;6.72;3.72;;;;;;;;;;5011686;28;20178;-50
2023/05/26 00:35:12;;;;;;;5.72;3.53;;;;;;;;;;5013703;28;20308;-50
2023/05/26 00:37:38;;;;;;;5.38;3.38;;;;;;;;;;5009160;28;20211;-49
2023/05/26 00:40:04;;;;;;;5.85;3.97;;;;;;;;;;5012071;28;20184;-49
2023/05/26 00:42:30;;;;;;;5.80;3.70;;;;;;;;;;5013248;28;20220;-49
2023/05/26 00:44:56;;;;;;;5.00;3.63;;;;;;;;;;5013981;28;20211;-49
2023/05/26 00:47:21;;;;;;;10.85;4.15;;;;;;;;;;5013319;28;20389;-49
2023/05/26 00:49:48;;;;;;;5.65;3.92;;;;;;;;;;5006892;28;20222;-49
2023/05/26 00:52:14;;;;;;;9.70;3.70;;;;;;;;;;5002166;28;20601;-49
2023/05/26 00:54:40;;;;;;;4.90;3.58;;;;;;;;;;5012344;28;20567;-50
2023/05/26 00:57:06;;;;;;;6.75;4.00;;;;;;;;;;5012577;28;20184;-49
2023/05/26 00:59:32;;;;;;;6.45;3.95;;;;;;;;;;5013234;28;20195;-49
2023/05/26 01:01:59;;;;;;;6.68;3.65;;;;;;;;;;5010068;28;20203;-49
2023/05/26 01:04:25;;;;;;;7.18;3.88;;;;;;;;;;5009595;28;20181;-49
2023/05/26 01:07:00;;;;;;;8.45;3.72;;;;;;;;;;5012808;28;20752;-50
2023/05/26 01:09:26;;;;;;;7.22;4.00;;;;;;;;;;5012862;28;20204;-50
2023/05/26 01:11:59;;;;;;;6.47;4.30;;;;;;;;;;5012714;28;20188;-49
2023/05/26 01:14:25;;;;;;;6.15;4.03;;;;;;;;;;5015845;28;20188;-49
2023/05/26 01:16:54;;;;;;;7.50;4.07;;;;;;;;;;5017050;28;20460;-49
2023/05/26 01:19:47;;;;;;;4.40;3.53;;;;;;;;;;5016825;28;20188;-49
2023/05/26 01:22:15;;;;;;;5.95;4.00;;;;;;;;;;5007486;28;20184;-49
2023/05/26 01:24:44;;;;;;;4.22;3.83;;;;;;;;;;5009463;28;20811;-49
2023/05/26 01:27:24;;;;;;;5.72;3.92;;;;;;;;;;5016820;28;20242;-49
2023/05/26 01:29:50;;;;;;;5.85;3.90;;;;;;;;;;5009373;28;20272;-50
2023/05/26 01:32:16;;;;;;;5.95;3.67;;;;;;;;;;5024066;28;20584;-49
2023/05/26 01:34:42;;;;;;;7.10;4.07;;;;;;;;;;5011852;28;20208;-49
2023/05/26 01:37:08;;;;;;;9.60;5.22;;;;;;;;;;5016339;28;20231;-50
2023/05/26 01:39:35;;;;;;;7.70;4.10;;;;;;;;;;5016502;28;20196;-49
2023/05/26 01:42:01;;;;;;;6.38;3.67;;;;;;;;;;5014193;28;20234;-49
2023/05/26 01:44:32;;;;;;;7.00;3.33;;;;;;;;;;5008179;28;20189;-50
2023/05/26 01:46:58;;;;;;;5.63;4.05;;;;;;;;;;5011345;28;20184;-49
2023/05/26 01:49:27;;;;;;;5.22;3.92;;;;;;;;;;5015384;28;20469;-49
2023/05/26 01:51:56;;;;;;;7.18;3.40;;;;;;;;;;5015611;28;20227;-50
2023/05/26 01:54:25;;;;;;;5.72;4.00;;;;;;;;;;5016569;28;20467;-49
2023/05/26 01:56:52;;;;;;;6.53;4.00;;;;;;;;;;5025478;28;20192;-49
2023/05/26 01:59:20;;;;;;;4.57;3.78;;;;;;;;;;5010787;28;20813;-49
2023/05/26 02:01:46;;;;;;;6.10;4.00;;;;;;;;;;5015049;28;20184;-49
2023/05/26 02:04:12;;;;;;;5.93;3.92;;;;;;;;;;5017344;28;20303;-49
2023/05/26 02:06:38;;;;;;;4.72;3.45;;;;;;;;;;5018205;28;20659;-49
2023/05/26 02:09:05;;;;;;;6.95;4.40;;;;;;;;;;5008590;28;20231;-49
2023/05/26 02:11:31;;;;;;;5.65;4.15;;;;;;;;;;5010269;28;20184;-49
2023/05/26 02:13:57;;;;;;;6.70;4.55;;;;;;;;;;5013414;28;20427;-49
2023/05/26 02:16:23;;;;;;;4.70;3.72;;;;;;;;;;5015432;28;20448;-49
2023/05/26 02:18:49;;;;;;;6.80;3.92;;;;;;;;;;5016134;28;20495;-49
2023/05/26 02:21:15;;;;;;;6.22;3.85;;;;;;;;;;5010780;28;20223;-49
2023/05/26 02:23:45;;;;;;;7.60;4.15;;;;;;;;;;5015199;28;20203;-49
2023/05/26 02:26:11;;;;;;;8.18;4.30;;;;;;;;;;5012068;28;20550;-49
2023/05/26 02:28:41;;;;;;;8.65;4.45;;;;;;;;;;5015819;28;20208;-49
2023/05/26 02:31:06;;;;;;;5.25;4.00;;;;;;;;;;5015539;28;20242;-49
2023/05/26 02:33:32;;;;;;;6.78;3.75;;;;;;;;;;5016315;28;20599;-49
2023/05/26 02:35:58;;;;;;;6.90;3.92;;;;;;;;;;5013518;28;20216;-49
2023/05/26 02:38:24;;;;;;;5.40;4.32;;;;;;;;;;5010795;28;20199;-49
2023/05/26 02:40:50;;;;;;;6.85;4.18;;;;;;;;;;5012159;28;20211;-49
2023/05/26 02:43:17;;;;;;;4.72;3.50;;;;;;;;;;5015505;28;20219;-49
2023/05/26 02:45:43;;;;;;;8.30;4.15;;;;;;;;;;5008113;28;20239;-49
2023/05/26 02:48:09;;;;;;;6.88;3.78;;;;;;;;;;5012685;28;20242;-49
2023/05/26 02:50:35;;;;;;;5.00;3.88;;;;;;;;;;5016373;28;20497;-49
2023/05/26 02:53:01;;;;;;;4.45;3.80;;;;;;;;;;5014541;28;20211;-49
2023/05/26 02:55:27;;;;;;;5.28;3.72;;;;;;;;;;5018158;28;20196;-49
2023/05/26 02:57:54;;;;;;;6.05;3.88;;;;;;;;;;5014020;28;20180;-49
2023/05/26 03:00:20;;;;;;;6.57;4.13;;;;;;;;;;5013522;28;20185;-49
2023/05/26 03:02:46;;;;;;;6.65;3.85;;;;;;;;;;5013929;28;20215;-49
2023/05/26 03:05:13;;;;;;;6.28;3.97;;;;;;;;;;5014376;28;20189;-49
2023/05/26 03:07:38;;;;;;;6.05;4.15;;;;;;;;;;5012487;28;20488;-49
2023/05/26 03:10:05;;;;;;;6.82;3.90;;;;;;;;;;5015406;28;20262;-49
2023/05/26 03:12:31;;;;;;;6.70;4.07;;;;;;;;;;5015388;28;20444;-49
2023/05/26 03:14:57;;;;;;;4.97;4.13;;;;;;;;;;5014877;28;20180;-49
2023/05/26 03:17:23;;;;;;;4.47;3.42;;;;;;;;;;5014487;28;20180;-49
2023/05/26 03:19:50;;;;;;;5.63;3.53;;;;;;;;;;5012026;28;20207;-50
2023/05/26 03:22:16;;;;;;;5.07;3.67;;;;;;;;;;5009397;28;20189;-49
2023/05/26 03:24:42;;;;;;;5.57;3.63;;;;;;;;;;5016907;28;20192;-49
2023/05/26 03:27:08;;;;;;;4.68;3.95;;;;;;;;;;5008417;28;20627;-49
2023/05/26 03:29:34;;;;;;;4.93;3.72;;;;;;;;;;5015043;28;20236;-49
2023/05/26 03:32:00;;;;;;;5.43;3.50;;;;;;;;;;5011108;28;20172;-49
2023/05/26 03:34:26;;;;;;;5.03;3.50;;;;;;;;;;5007550;28;20188;-51
2023/05/26 03:36:54;;;;;;;5.13;3.60;;;;;;;;;;5013551;28;20192;-49
2023/05/26 03:39:22;;;;;;;8.77;4.22;;;;;;;;;;5014873;28;20454;-49
2023/05/26 03:41:48;;;;;;;9.82;4.63;;;;;;;;;;5013761;28;20180;-49
2023/05/26 03:44:18;;;;;;;11.60;5.18;;;;;;;;;;5012237;28;20345;-49
2023/05/26 03:46:44;;;;;;;15.93;5.30;;;;;;;;;;5011264;28;20224;-49
2023/05/26 03:49:10;;;;;;;9.55;4.57;;;;;;;;;;5014002;28;20239;-49
2023/05/26 03:51:36;;;;;;;11.05;5.10;;;;;;;;;;5014112;28;20243;-49
2023/05/26 03:54:02;;;;;;;13.23;4.63;;;;;;;;;;5014648;28;20192;-49
2023/05/26 03:56:28;;;;;;;12.07;5.35;;;;;;;;;;5014574;28;20259;-49
2023/05/26 03:58:54;;;;;;;9.25;4.65;;;;;;;;;;5015536;28;20184;-49
2023/05/26 04:01:20;;;;;;;21.48;6.25;;;;;;;;;;5014254;28;20180;-49
2023/05/26 04:03:46;;;;;;;28.88;11.00;;;;;;;;;;5011297;28;20444;-50
2023/05/26 04:06:12;;;;;;;28.85;9.15;;;;;;;;;;5015283;28;20255;-50
2023/05/26 04:08:38;;;;;;;15.20;7.65;;;;;;;;;;5013436;28;20204;-50
2023/05/26 04:11:04;;;;;;;20.70;7.20;;;;;;;;;;5010778;28;20251;-50
2023/05/26 04:13:30;;;;;;;17.15;7.05;;;;;;;;;;5014564;28;20448;-50
2023/05/26 04:15:56;;;;;;;20.73;7.07;;;;;;;;;;5017103;28;20184;-50
2023/05/26 04:18:23;;;;;;;17.10;7.15;;;;;;;;;;5014158;28;20234;-50
2023/05/26 04:20:49;;;;;;;18.67;6.90;;;;;;;;;;5013678;28;20275;-50
2023/05/26 04:23:15;;;;;;;16.05;6.88;;;;;;;;;;5014880;28;20259;-50
2023/05/26 04:25:41;;;;;;;17.40;6.53;;;;;;;;;;5007442;28;20207;-50
2023/05/26 04:28:08;;;;;;;16.80;7.13;;;;;;;;;;5013253;28;20280;-49
2023/05/26 04:30:39;;;;;;;13.25;5.60;;;;;;;;;;5015136;28;20168;-49
2023/05/26 04:33:08;;;;;;;13.65;6.00;;;;;;;;;;5005180;28;20239;-49
2023/05/26 04:35:34;;;;;;;13.57;5.68;;;;;;;;;;5015073;28;20222;-50
2023/05/26 04:38:00;;;;;;;11.20;5.35;;;;;;;;;;5014051;28;20503;-50
2023/05/26 04:40:26;;;;;;;12.70;5.25;;;;;;;;;;5012352;28;20180;-50
2023/05/26 04:42:53;;;;;;;12.73;5.97;;;;;;;;;;5012916;28;20176;-50
2023/05/26 04:45:19;;;;;;;10.75;5.53;;;;;;;;;;5014411;28;20188;-50
2023/05/26 04:47:45;;;;;;;13.82;5.93;;;;;;;;;;5013691;28;20195;-49
2023/05/26 04:50:12;;;;;;;14.85;5.50;;;;;;;;;;5013119;28;20508;-51
2023/05/26 04:52:39;;;;;;;10.38;4.95;;;;;;;;;;5009855;28;20164;-50
2023/05/26 04:55:06;;;;;;;12.55;4.78;;;;;;;;;;5012458;28;20188;-50
2023/05/26 04:57:32;;;;;;;10.93;5.57;;;;;;;;;;5008584;28;20419;-49
2023/05/26 04:59:58;;;;;;;11.90;5.05;;;;;;;;;;5008808;28;20188;-49
2023/05/26 05:02:24;;;;;;;11.93;4.50;;;;;;;;;;5007970;28;20545;-49
2023/05/26 05:04:51;;;;;;;10.25;4.80;;;;;;;;;;5009142;28;20181;-50
2023/05/26 05:07:17;;;;;;;9.75;5.00;;;;;;;;;;5007663;28;20196;-50
2023/05/26 05:09:43;;;;;;;14.85;5.40;;;;;;;;;;5011680;28;20618;-50
2023/05/26 05:12:08;;;;;;;12.27;5.30;;;;;;;;;;5006145;28;20188;-50
2023/05/26 05:14:34;;;;;;;8.65;4.88;;;;;;;;;;5005480;28;20171;-50
2023/05/26 05:17:00;;;;;;;12.13;5.47;;;;;;;;;;5007887;28;20193;-49
2023/05/26 05:19:29;;;;;;;9.23;5.55;;;;;;;;;;5028064;28;20272;-49
2023/05/26 05:21:55;;;;;;;9.50;5.22;;;;;;;;;;5007990;28;20267;-49
2023/05/26 05:24:21;;;;;;;8.05;4.70;;;;;;;;;;5012523;28;20272;-49
2023/05/26 05:26:47;;;;;;;11.05;4.43;;;;;;;;;;5006220;28;20207;-49
2023/05/26 05:29:13;;;;;;;8.45;4.82;;;;;;;;;;5008798;28;20218;-49
2023/05/26 05:31:39;;;;;;;8.02;4.97;;;;;;;;;;5008625;28;20259;-49
2023/05/26 05:34:05;;;;;;;7.65;4.70;;;;;;;;;;5012208;28;20196;-49
2023/05/26 05:36:33;;;;;;;8.48;4.93;;;;;;;;;;5011796;28;20215;-49
2023/05/26 05:38:58;;;;;;;8.70;4.75;;;;;;;;;;5016276;28;20538;-50
2023/05/26 05:41:24;;;;;;;9.30;4.30;;;;;;;;;;5012850;28;20195;-50
2023/05/26 05:43:56;;;;;;;7.75;4.65;;;;;;;;;;5012364;28;20177;-49
2023/05/26 05:46:22;;;;;;;7.80;4.65;;;;;;;;;;5010892;28;20204;-50
2023/05/26 05:48:48;;;;;;;9.23;5.10;;;;;;;;;;5012561;28;20259;-50
2023/05/26 05:51:14;;;;;;;9.77;5.68;;;;;;;;;;5010319;28;20177;-49
2023/05/26 05:53:40;;;;;;;7.40;4.68;;;;;;;;;;5008937;28;20544;-49
2023/05/26 05:56:06;;;;;;;7.53;4.80;;;;;;;;;;5008826;28;20192;-49
2023/05/26 05:58:31;;;;;;;8.57;4.80;;;;;;;;;;5028566;28;20282;-49
2023/05/26 06:00:58;;;;;;;8.77;4.97;;;;;;;;;;5015540;28;20188;-50
2023/05/26 06:03:24;;;;;;;8.57;5.57;;;;;;;;;;5016651;28;20243;-50
2023/05/26 06:05:50;;;;;;;7.60;4.97;;;;;;;;;;5013365;28;20625;-49
2023/05/26 06:08:15;;;;;;;9.77;5.45;;;;;;;;;;5016691;28;20251;-50
2023/05/26 06:10:41;;;;;;;12.52;6.18;;;;;;;;;;5011601;28;20230;-50
2023/05/26 06:13:07;;;;;;;8.98;5.25;;;;;;;;;;5016752;28;20185;-50
2023/05/26 06:15:33;;;;;;;9.85;4.78;;;;;;;;;;5016806;28;20183;-50
2023/05/26 06:17:59;;;;;;;5.65;4.18;;;;;;;;;;5015933;28;20184;-50
2023/05/26 06:20:25;;;;;;;6.43;4.50;;;;;;;;;;5016196;28;20200;-50
2023/05/26 06:22:51;;;;;;;7.18;5.15;;;;;;;;;;5011919;28;20259;-49
2023/05/26 06:25:17;;;;;;;7.53;4.97;;;;;;;;;;5016365;28;20323;-50
2023/05/26 06:27:43;;;;;;;7.63;4.47;;;;;;;;;;5013075;28;20187;-50
2023/05/26 06:30:09;;;;;;;10.70;4.85;;;;;;;;;;5012876;28;20264;-50
2023/05/26 06:32:35;;;;;;;7.07;4.03;;;;;;;;;;5012447;28;20181;-50
2023/05/26 06:35:01;;;;;;;9.70;4.78;;;;;;;;;;5015348;28;20180;-50
2023/05/26 06:37:27;;;;;;;7.22;4.72;;;;;;;;;;5010761;28;20184;-50
2023/05/26 06:39:53;;;;;;;10.38;5.25;;;;;;;;;;5009458;28;20472;-50
2023/05/26 06:42:19;;;;;;;5.95;4.22;;;;;;;;;;5015168;28;20184;-49
2023/05/26 06:44:44;;;;;;;9.63;5.38;;;;;;;;;;5017490;28;20227;-49
2023/05/26 06:47:10;;;;;;;7.00;5.22;;;;;;;;;;5012972;28;20180;-49
2023/05/26 06:49:37;;;;;;;9.65;5.18;;;;;;;;;;5028521;28;20516;-50
2023/05/26 06:52:02;;;;;;;7.40;4.20;;;;;;;;;;5016115;28;20199;-50
2023/05/26 06:54:28;;;;;;;9.57;5.50;;;;;;;;;;5016626;28;20184;-50
2023/05/26 06:56:54;;;;;;;9.02;5.15;;;;;;;;;;5007820;28;20527;-50
2023/05/26 06:59:20;;;;;;;9.35;5.35;;;;;;;;;;5014749;28;20231;-50
2023/05/26 07:01:46;;;;;;;7.72;4.47;;;;;;;;;;5015422;28;20184;-49
2023/05/26 07:04:12;;;;;;;5.88;3.95;;;;;;;;;;5006159;28;20259;-49
2023/05/26 07:06:38;;;;;;;7.35;3.58;;;;;;;;;;5014577;28;20208;-49
2023/05/26 07:09:04;;;;;;;8.75;4.70;;;;;;;;;;5013508;28;20285;-49
2023/05/26 07:11:30;;;;;;;7.40;4.00;;;;;;;;;;5014053;28;20173;-50
2023/05/26 07:13:56;;;;;;;7.43;4.63;;;;;;;;;;5015298;28;20196;-49
2023/05/26 07:16:22;;;;;;;10.48;5.28;;;;;;;;;;5011315;28;20192;-50
2023/05/26 07:18:48;;;;;;;5.97;4.00;;;;;;;;;;5010889;28;20206;-50
2023/05/26 07:21:15;;;;;;;5.03;3.72;;;;;;;;;;5015292;28;20278;-50
2023/05/26 07:23:41;;;;;;;6.32;4.22;;;;;;;;;;5015445;28;20263;-50
2023/05/26 07:26:06;;;;;;;9.38;3.75;;;;;;;;;;5015620;28;20584;-49
2023/05/26 07:28:32;;;;;;;9.35;4.70;;;;;;;;;;5012206;28;20231;-49
2023/05/26 07:30:58;;;;;;;7.57;3.92;;;;;;;;;;5013493;28;20207;-49
2023/05/26 07:33:24;;;;;;;7.95;4.55;;;;;;;;;;5015726;28;20264;-50
2023/05/26 07:35:50;;;;;;;5.70;3.40;;;;;;;;;;5014757;28;20184;-50
2023/05/26 07:38:17;;;;;;;5.53;3.63;;;;;;;;;;5014363;28;20189;-50
2023/05/26 07:40:43;;;;;;;8.20;3.72;;;;;;;;;;5014504;28;20175;-50
2023/05/26 07:43:12;;;;;;;5.78;4.10;;;;;;;;;;5015676;28;20271;-50
2023/05/26 07:45:38;;;;;;;7.55;4.25;;;;;;;;;;5015676;28;20582;-50
2023/05/26 07:48:04;;;;;;;14.02;5.38;;;;;;;;;;5015293;28;20464;-50
2023/05/26 07:50:30;;;;;;;7.97;5.82;;;;;;;;;;5015852;28;20173;-50
2023/05/26 07:52:56;;;;;;;7.03;4.13;;;;;;;;;;5015091;28;20259;-50
2023/05/26 07:55:22;;;;;;;11.15;4.55;;;;;;;;;;5015102;28;20484;-50
2023/05/26 07:57:48;;;;;;;8.45;4.88;;;;;;;;;;5015322;28;20224;-50
2023/05/26 08:00:14;;;;;;;9.45;4.97;;;;;;;;;;5030567;28;20445;-50
2023/05/26 08:02:40;;;;;;;6.25;4.07;;;;;;;;;;5015190;28;20562;-50
2023/05/26 08:05:06;;;;;;;11.55;5.55;;;;;;;;;;5007894;28;20184;-50
2023/05/26 08:07:32;;;;;;;7.50;4.55;;;;;;;;;;5028400;28;20623;-50
2023/05/26 08:09:58;;;;;;;7.20;4.30;;;;;;;;;;5011341;28;20204;-50
2023/05/26 08:12:24;;;;;;;7.82;4.40;;;;;;;;;;5014420;28;20169;-50
2023/05/26 08:14:50;;;;;;;8.50;4.70;;;;;;;;;;5014587;28;20255;-50
2023/05/26 08:17:17;;;;;;;7.35;4.65;;;;;;;;;;5007825;28;20185;-50
2023/05/26 08:19:43;;;;;;;8.27;4.45;;;;;;;;;;5011164;28;20196;-50
2023/05/26 08:22:09;;;;;;;7.57;3.75;;;;;;;;;;5009096;28;20208;-50
2023/05/26 08:24:34;;;;;;;5.25;3.80;;;;;;;;;;5010339;28;20204;-50
2023/05/26 08:27:00;;;;;;;8.35;4.60;;;;;;;;;;5014156;28;20583;-50
2023/05/26 08:29:26;;;;;;;5.57;3.60;;;;;;;;;;5026849;28;20208;-50
2023/05/26 08:31:52;;;;;;;7.88;4.03;;;;;;;;;;5012597;28;20189;-49
2023/05/26 08:34:18;;;;;;;6.60;3.65;;;;;;;;;;5009655;28;20191;-49
2023/05/26 08:36:44;;;;;;;8.55;3.75;;;;;;;;;;5010079;28;20271;-49
2023/05/26 08:39:10;;;;;;;6.82;4.15;;;;;;;;;;5013176;28;20196;-49
2023/05/26 08:41:37;;;;;;;10.60;4.32;;;;;;;;;;5013859;28;20177;-49
2023/05/26 08:44:04;;;;;;;7.38;4.85;;;;;;;;;;5013929;28;20647;-49
2023/05/26 08:46:32;;;;;;;7.78;4.25;;;;;;;;;;5013970;28;20472;-49
2023/05/26 08:48:58;;;;;;;7.93;4.70;;;;;;;;;;5010806;28;20300;-49
2023/05/26 08:51:24;;;;;;;6.93;4.10;;;;;;;;;;5012763;28;20263;-49
2023/05/26 08:53:50;;;;;;;8.32;4.35;;;;;;;;;;5013475;28;20259;-50
2023/05/26 08:56:16;;;;;;;11.10;4.72;;;;;;;;;;5013736;28;20231;-50
2023/05/26 08:58:43;;;;;;;9.82;4.30;;;;;;;;;;5014321;28;20219;-50
2023/05/26 09:01:09;;;;;;;10.63;4.28;;;;;;;;;;5006943;28;20615;-50
2023/05/26 09:03:35;;;;;;;7.32;3.80;;;;;;;;;;5013215;28;20184;-50
2023/05/26 09:06:02;;;;;;;5.95;4.03;;;;;;;;;;5012240;28;20307;-50
2023/05/26 09:08:28;;;;;;;5.13;3.40;;;;;;;;;;5007048;28;20211;-50
2023/05/26 09:10:54;;;;;;;7.63;3.75;;;;;;;;;;5016517;28;20435;-50
2023/05/26 09:13:23;;;;;;;8.52;4.18;;;;;;;;;;5014190;28;20191;-50
2023/05/26 09:15:51;;;;;;;6.00;3.13;;;;;;;;;;5014563;28;20215;-50
2023/05/26 09:18:17;;;;;;;6.82;4.40;;;;;;;;;;5006856;28;20179;-50
2023/05/26 09:20:44;;;;;;;6.45;3.45;;;;;;;;;;5003464;28;20193;-50
2023/05/26 09:23:10;;;;;;;6.93;3.80;;;;;;;;;;5009312;28;20184;-50
2023/05/26 09:25:36;;;;;;;4.75;3.28;;;;;;;;;;5014018;28;20263;-50
2023/05/26 09:28:06;;;;;;;7.50;3.40;;;;;;;;;;5017016;28;20211;-49
2023/05/26 09:30:42;;;;;;;6.47;3.15;;;;;;;;;;5003279;28;20195;-50
2023/05/26 09:33:10;;;;;;;6.47;3.35;;;;;;;;;;5012395;28;20191;-50
2023/05/26 09:35:37;;;;;;;8.15;3.50;;;;;;;;;;5014451;28;20177;-50
2023/05/26 09:38:04;;;;;;;7.60;3.65;;;;;;;;;;5016545;28;20580;-50
2023/05/26 09:40:29;;;;;;;7.38;3.63;;;;;;;;;;5005114;28;20176;-50
2023/05/26 09:42:56;;;;;;;7.82;3.83;;;;;;;;;;5017227;28;20181;-50
2023/05/26 09:45:22;;;;;;;9.10;3.22;;;;;;;;;;5007023;28;20181;-50
2023/05/26 09:47:57;;;;;;;8.23;3.30;;;;;;;;;;5014801;28;20181;-50
2023/05/26 09:50:24;;;;;;;8.35;3.78;;;;;;;;;;5015718;28;20513;-50
2023/05/26 09:52:50;;;;;;;7.88;3.00;;;;;;;;;;5017077;28;20255;-50
2023/05/26 09:55:16;;;;;;;7.75;3.22;;;;;;;;;;5017225;28;20189;-50
2023/05/26 09:57:45;;;;;;;11.30;3.78;;;;;;;;;;5016927;28;20196;-50
2023/05/26 10:00:12;;;;;;;7.25;4.13;;;;;;;;;;5021790;28;20180;-50
2023/05/26 10:02:39;;;;;;;10.82;4.03;;;;;;;;;;5013855;28;20573;-50
2023/05/26 10:05:06;;;;;;;8.40;3.72;;;;;;;;;;5006305;28;20181;-49
2023/05/26 10:07:33;;;;;;;8.25;3.10;;;;;;;;;;5010571;28;20240;-49
2023/05/26 10:10:00;;;;;;;7.68;3.45;;;;;;;;;;5015065;28;20270;-49
2023/05/26 10:12:27;;;;;;;9.80;4.05;;;;;;;;;;5014658;28;20188;-50
2023/05/26 10:14:54;;;;;;;7.85;3.22;;;;;;;;;;5016136;28;20230;-50
2023/05/26 10:17:20;;;;;;;9.60;3.20;;;;;;;;;;5011184;28;20260;-49
2023/05/26 10:19:46;;;;;;;11.27;3.78;;;;;;;;;;5010754;28;20224;-50
2023/05/26 10:22:14;;;;;;;7.75;3.47;;;;;;;;;;5013523;28;20201;-50
2023/05/26 10:24:43;;;;;;;9.63;3.15;;;;;;;;;;5016673;28;20211;-49
2023/05/26 10:27:20;;;;;;;6.80;3.72;;;;;;;;;;5015205;28;20192;-50
2023/05/26 10:30:08;;;;;;;8.27;3.30;;;;;;;;;;5014275;28;20204;-50
2023/05/26 10:32:51;;;;;;;8.57;3.25;;;;;;;;;;5006860;28;20172;-50
2023/05/26 10:35:33;;;;;;;8.30;3.40;;;;;;;;;;5014163;28;20188;-50
2023/05/26 10:38:02;;;;;;;9.90;4.20;;;;;;;;;;5008382;28;20187;-50
2023/05/26 10:40:37;;;;;;;10.10;3.88;;;;;;;;;;5010478;28;20451;-50
2023/05/26 10:43:11;;;;;;;10.15;3.33;;;;;;;;;;5013495;28;20187;-50
2023/05/26 10:45:43;;;;;;;10.98;3.70;;;;;;;;;;5008599;28;20199;-50
2023/05/26 10:48:10;;;;;;;7.80;3.50;;;;;;;;;;5014396;28;20192;-50
2023/05/26 10:51:04;;;;;;;9.60;3.88;;;;;;;;;;5015687;28;20312;-50
2023/05/26 10:53:31;;;;;;;8.00;3.20;;;;;;;;;;5012289;28;20195;-50
2023/05/26 10:56:04;;;;;;;8.80;3.45;;;;;;;;;;5014153;28;20181;-50
2023/05/26 10:58:31;;;;;;;10.20;3.50;;;;;;;;;;5005697;28;20192;-50
2023/05/26 11:01:01;;;;;;;9.10;3.38;;;;;;;;;;5005280;28;20184;-50
2023/05/26 11:03:38;;;;;;;12.23;3.75;;;;;;;;;;5007631;28;20191;-50
2023/05/26 11:06:05;;;;;;;6.82;3.22;;;;;;;;;;5012100;28;20200;-50
2023/05/26 11:08:41;;;;;;;9.45;3.78;;;;;;;;;;5009670;28;20220;-50
2023/05/26 11:11:10;;;;;;;6.35;3.35;;;;;;;;;;5009659;28;20628;-49
2023/05/26 11:13:44;;;;;;;7.43;3.45;;;;;;;;;;5006981;28;20234;-49
2023/05/26 11:16:20;;;;;;;9.80;4.00;;;;;;;;;;5012768;28;20535;-50
2023/05/26 11:18:50;;;;;;;12.35;3.97;;;;;;;;;;5010557;28;20176;-49
2023/05/26 11:21:17;;;;;;;7.60;3.05;;;;;;;;;;5013675;28;20199;-49
2023/05/26 11:23:44;;;;;;;7.97;2.83;;;;;;;;;;5012816;28;20181;-49
2023/05/26 11:26:14;;;;;;;11.27;3.72;;;;;;;;;;5010970;28;20303;-50
2023/05/26 11:28:41;;;;;;;10.38;3.78;;;;;;;;;;5004275;28;20212;-50
2023/05/26 11:31:11;;;;;;;10.02;3.72;;;;;;;;;;5007208;28;20180;-50
2023/05/26 11:33:36;;;;;;;8.43;3.10;;;;;;;;;;5013265;28;20181;-50
2023/05/26 11:36:21;;;;;;;8.43;3.45;;;;;;;;;;5009575;28;20283;-50
2023/05/26 11:38:48;;;;;;;9.27;3.55;;;;;;;;;;5007047;28;20271;-50
2023/05/26 11:41:17;;;;;;;10.85;3.80;;;;;;;;;;5013534;28;20239;-50
2023/05/26 11:43:46;;;;;;;9.93;3.50;;;;;;;;;;5015663;28;20256;-50
2023/05/26 11:46:15;;;;;;;10.32;3.55;;;;;;;;;;5014731;28;20265;-49
2023/05/26 11:48:42;;;;;;;10.20;4.32;;;;;;;;;;5012704;28;20196;-49
2023/05/26 11:51:20;;;;;;;16.25;3.50;;;;;;;;;;5007659;28;20181;-49
2023/05/26 11:53:47;;;;;;;10.75;3.47;;;;;;;;;;5012187;28;20208;-49
2023/05/26 11:56:14;;;;;;;11.30;3.70;;;;;;;;;;5013874;28;20179;-49
2023/05/26 11:58:50;;;;;;;8.80;3.22;;;;;;;;;;5014347;28;20564;-50
2023/05/26 12:01:16;;;;;;;12.00;3.58;;;;;;;;;;5013854;28;20188;-50
2023/05/26 12:03:44;;;;;;;12.25;3.45;;;;;;;;;;5014312;28;20551;-50
2023/05/26 12:06:15;;;;;;;9.20;2.95;;;;;;;;;;5008135;28;20213;-50
2023/05/26 12:08:54;;;;;;;13.02;3.17;;;;;;;;;;5012165;28;20299;-50
2023/05/26 12:11:23;;;;;;;13.30;3.50;;;;;;;;;;5010151;28;20264;-50
2023/05/26 12:13:55;;;;;;;10.05;3.42;;;;;;;;;;5008143;28;20561;-50
2023/05/26 12:16:22;;;;;;;9.15;3.63;;;;;;;;;;5014109;28;20243;-50
2023/05/26 12:18:51;;;;;;;10.63;3.30;;;;;;;;;;5014826;28;20234;-50
2023/05/26 12:21:17;;;;;;;10.23;3.28;;;;;;;;;;5003543;28;20201;-50
2023/05/26 12:23:43;;;;;;;10.57;3.03;;;;;;;;;;5015165;28;20523;-50
2023/05/26 12:26:19;;;;;;;7.65;2.58;;;;;;;;;;5009455;28;20288;-50
2023/05/26 12:28:44;;;;;;;9.05;3.20;;;;;;;;;;5018057;28;20460;-49
2023/05/26 12:31:11;;;;;;;10.40;2.92;;;;;;;;;;5031891;28;20196;-50
2023/05/26 12:33:37;;;;;;;5.57;2.50;;;;;;;;;;5014164;28;20176;-50
2023/05/26 12:36:05;;;;;;;7.35;2.83;;;;;;;;;;5014449;28;20463;-50
2023/05/26 12:38:41;;;;;;;8.80;2.90;;;;;;;;;;5014371;28;20195;-50
2023/05/26 12:41:06;;;;;;;7.95;2.88;;;;;;;;;;5009674;28;20623;-50
2023/05/26 12:43:32;;;;;;;9.85;3.10;;;;;;;;;;5013210;28;20199;-50
2023/05/26 12:45:58;;;;;;;5.80;2.72;;;;;;;;;;5011126;28;20580;-50
2023/05/26 12:48:24;;;;;;;10.55;2.80;;;;;;;;;;5015534;28;20606;-50
2023/05/26 12:50:50;;;;;;;5.68;2.92;;;;;;;;;;5006773;28;20457;-50
2023/05/26 12:53:16;;;;;;;8.20;2.83;;;;;;;;;;5012168;28;20556;-50
2023/05/26 12:55:42;;;;;;;8.93;2.65;;;;;;;;;;5027968;28;20185;-49
2023/05/26 12:58:08;;;;;;;7.22;2.65;;;;;;;;;;5013257;28;20242;-51
2023/05/26 13:00:34;;;;;;;9.00;2.90;;;;;;;;;;5006373;28;20564;-50
2023/05/26 13:03:00;;;;;;;6.72;2.60;;;;;;;;;;5010963;28;20314;-50
2023/05/26 13:05:26;;;;;;;8.88;2.90;;;;;;;;;;5012110;28;20271;-49
2023/05/26 13:07:52;;;;;;;4.88;2.40;;;;;;;;;;5013213;28;20247;-49
2023/05/26 13:10:18;;;;;;;7.40;2.85;;;;;;;;;;5009594;28;20259;-50
2023/05/26 13:12:44;;;;;;;9.02;2.83;;;;;;;;;;5010557;28;20727;-50
2023/05/26 13:15:12;;;;;;;5.13;2.28;;;;;;;;;;5011245;28;20165;-49
2023/05/26 13:17:38;;;;;;;6.05;2.60;;;;;;;;;;5016695;28;20219;-49
2023/05/26 13:20:05;;;;;;;6.75;2.75;;;;;;;;;;5012793;28;20224;-49
2023/05/26 13:22:31;;;;;;;4.80;2.40;;;;;;;;;;5033854;28;20211;-49
2023/05/26 13:24:57;;;;;;;9.18;3.10;;;;;;;;;;5013348;28;20468;-50
2023/05/26 13:27:23;;;;;;;7.90;2.60;;;;;;;;;;5010752;28;20215;-49
2023/05/26 13:29:49;;;;;;;4.68;2.80;;;;;;;;;;5015810;28;20220;-49
2023/05/26 13:32:14;;;;;;;12.13;2.75;;;;;;;;;;5014953;28;20443;-49
2023/05/26 13:34:40;;;;;;;7.57;2.60;;;;;;;;;;5014824;28;20225;-50
2023/05/26 13:37:06;;;;;;;7.00;2.55;;;;;;;;;;5020824;28;20235;-50
2023/05/26 13:39:32;;;;;;;7.38;2.80;;;;;;;;;;5016411;28;20595;-50
2023/05/26 13:41:58;;;;;;;7.70;2.95;;;;;;;;;;5015337;28;20177;-50
2023/05/26 13:44:24;;;;;;;8.25;2.92;;;;;;;;;;5016851;28;20230;-50
2023/05/26 13:46:50;;;;;;;7.15;2.70;;;;;;;;;;5017165;28;20199;-49
2023/05/26 13:49:16;;;;;;;8.30;2.60;;;;;;;;;;5016360;28;20223;-50
2023/05/26 13:51:42;;;;;;;4.55;2.25;;;;;;;;;;5017455;28;20177;-50
2023/05/26 13:54:07;;;;;;;7.10;2.58;;;;;;;;;;5022649;28;20234;-50
2023/05/26 13:56:33;;;;;;;7.57;2.80;;;;;;;;;;5017674;28;20548;-50
2023/05/26 13:58:59;;;;;;;8.52;2.85;;;;;;;;;;5013115;28;20591;-50
2023/05/26 14:01:25;;;;;;;8.02;2.83;;;;;;;;;;5014332;28;20378;-50
2023/05/26 14:03:51;;;;;;;7.28;2.72;;;;;;;;;;5017910;28;20442;-50
2023/05/26 14:06:17;;;;;;;5.90;2.30;;;;;;;;;;5014888;28;20181;-50
2023/05/26 14:08:43;;;;;;;7.75;2.80;;;;;;;;;;5016129;28;20611;-50
2023/05/26 14:11:10;;;;;;;5.47;2.63;;;;;;;;;;5018806;28;20192;-50
2023/05/26 14:13:36;;;;;;;6.60;2.88;;;;;;;;;;5011412;28;20571;-49
2023/05/26 14:16:02;;;;;;;8.68;2.90;;;;;;;;;;5027962;28;20231;-49
2023/05/26 14:18:28;;;;;;;9.35;2.75;;;;;;;;;;5015735;28;20208;-49
2023/05/26 14:20:54;;;;;;;8.30;2.50;;;;;;;;;;5008175;28;20260;-50
2023/05/26 14:23:22;;;;;;;9.45;2.83;;;;;;;;;;5010467;28;20188;-50
2023/05/26 14:25:48;;;;;;;7.60;3.10;;;;;;;;;;5018668;28;20207;-50
2023/05/26 14:28:13;;;;;;;8.32;2.40;;;;;;;;;;5013365;28;20199;-50
2023/05/26 14:30:39;;;;;;;10.95;2.95;;;;;;;;;;5012330;28;20575;-50
2023/05/26 14:33:06;;;;;;;9.80;2.85;;;;;;;;;;5012213;28;20185;-50
2023/05/26 14:35:31;;;;;;;7.60;2.50;;;;;;;;;;5011933;28;20192;-49
2023/05/26 14:37:57;;;;;;;6.82;2.63;;;;;;;;;;5014528;28;20560;-49
2023/05/26 14:40:23;;;;;;;10.40;2.35;;;;;;;;;;5015576;28;20231;-49